Time;durP1;ratioP1;P1;durP2;ratioP2;P2;SDS_P1;SDS_P2;PMS_P1;PMS_P2;Temp;Humidity;BMP_temperature;BMP_pressure;BME280_temperature;BME280_humidity;BME280_pressure;Samples;Min_cycle;Max_cycle;Signal;HPM_P1;HPM_P2
2023/06/23 00:02:12;;;;;;;;;;;24.50;72.20;;;;;;5048893;28;19932;-74
2023/06/23 00:04:40;;;;;;;;;;;24.50;72.30;;;;;;5051402;28;19934;-74
2023/06/23 00:07:06;;;;;;;;;;;24.50;72.40;;;;;;5050891;28;19993;-74
2023/06/23 00:09:37;;;;;;;;;;;24.50;72.50;;;;;;5054853;28;19936;-73
2023/06/23 00:12:07;;;;;;;;;;;24.40;72.40;;;;;;5054338;28;20409;-74
2023/06/23 00:14:33;;;;;;;;;;;24.40;72.50;;;;;;5053583;28;19932;-74
2023/06/23 00:17:00;;;;;;;;;;;24.40;72.60;;;;;;5054792;28;19929;-73
2023/06/23 00:19:27;;;;;;;;;;;24.40;72.60;;;;;;5054807;28;20050;-73
2023/06/23 00:21:53;;;;;;;;;;;24.30;72.60;;;;;;5058574;28;19936;-73
2023/06/23 00:24:21;;;;;;;;;;;24.30;72.60;;;;;;5056524;28;20390;-73
2023/06/23 00:26:49;;;;;;;;;;;24.30;72.60;;;;;;5052524;28;19936;-74
2023/06/23 00:29:16;;;;;;;;;;;24.30;72.70;;;;;;5057762;28;20468;-74
2023/06/23 00:31:43;;;;;;;;;;;24.30;72.70;;;;;;5058497;28;19935;-74
2023/06/23 00:34:10;;;;;;;;;;;24.20;72.70;;;;;;5057708;28;19937;-74
2023/06/23 00:36:36;;;;;;;;;;;24.20;72.80;;;;;;5050503;28;19932;-74
2023/06/23 00:39:03;;;;;;;;;;;24.20;72.80;;;;;;5051217;28;19940;-74
2023/06/23 00:41:30;;;;;;;;;;;24.20;72.70;;;;;;5057432;28;20596;-74
2023/06/23 00:43:59;;;;;;;;;;;24.10;72.70;;;;;;5057492;28;19928;-74
2023/06/23 00:46:26;;;;;;;;;;;24.10;72.60;;;;;;5052877;28;20009;-73
2023/06/23 00:48:53;;;;;;;;;;;24.10;72.40;;;;;;5055896;28;19982;-73
2023/06/23 00:51:22;;;;;;;;;;;24.00;72.20;;;;;;5059249;28;20074;-74
2023/06/23 00:53:48;;;;;;;;;;;24.00;72.10;;;;;;5059506;28;20041;-73
2023/06/23 00:56:15;;;;;;;;;;;24.00;71.70;;;;;;5057095;28;19928;-74
2023/06/23 00:58:42;;;;;;;;;;;24.00;71.60;;;;;;5053006;28;19928;-73
2023/06/23 01:01:10;;;;;;;;;;;23.90;71.40;;;;;;5056617;28;20651;-74
2023/06/23 01:03:37;;;;;;;;;;;23.90;71.20;;;;;;5056681;28;19977;-73
2023/06/23 01:06:09;;;;;;;;;;;23.90;71.10;;;;;;5056497;28;19929;-74
2023/06/23 01:08:39;;;;;;;;;;;23.80;71.00;;;;;;5051749;28;20043;-73
2023/06/23 01:11:08;;;;;;;;;;;23.80;71.00;;;;;;5055922;28;20461;-74
2023/06/23 01:13:37;;;;;;;;;;;23.80;71.00;;;;;;5055618;28;20379;-75
2023/06/23 01:16:07;;;;;;;;;;;23.80;71.00;;;;;;5057252;28;19935;-74
2023/06/23 01:18:40;;;;;;;;;;;23.70;71.00;;;;;;5057976;28;19935;-74
2023/06/23 01:21:09;;;;;;;;;;;23.70;71.00;;;;;;5061060;28;19983;-74
2023/06/23 01:23:45;;;;;;;;;;;23.70;71.10;;;;;;5053352;28;20647;-73
2023/06/23 01:26:19;;;;;;;;;;;23.70;71.30;;;;;;5054222;28;19947;-73
2023/06/23 01:28:49;;;;;;;;;;;23.60;71.50;;;;;;5052038;28;19931;-75
2023/06/23 01:31:18;;;;;;;;;;;23.60;71.60;;;;;;5049097;28;19928;-74
2023/06/23 01:33:48;;;;;;;;;;;23.50;71.80;;;;;;5056254;28;19936;-74
2023/06/23 01:36:19;;;;;;;;;;;23.50;72.00;;;;;;5047359;28;19936;-74
2023/06/23 01:38:48;;;;;;;;;;;23.40;72.10;;;;;;5051752;28;20466;-74
2023/06/23 01:41:16;;;;;;;;;;;23.40;72.20;;;;;;5054534;28;19932;-74
2023/06/23 01:43:45;;;;;;;;;;;23.40;72.40;;;;;;5051714;28;19974;-74
2023/06/23 01:46:15;;;;;;;;;;;23.30;72.60;;;;;;5053987;28;20034;-74
2023/06/23 01:48:45;;;;;;;;;;;23.30;72.80;;;;;;5047371;28;19928;-74
2023/06/23 01:51:12;;;;;;;;;;;23.20;73.00;;;;;;5053050;28;19933;-74
2023/06/23 01:53:39;;;;;;;;;;;23.10;73.20;;;;;;5047528;28;19925;-74
2023/06/23 01:56:06;;;;;;;;;;;23.10;73.20;;;;;;5052065;28;19924;-74
2023/06/23 01:58:34;;;;;;;;;;;23.10;73.40;;;;;;5050621;28;19986;-74
2023/06/23 02:01:01;;;;;;;;;;;23.00;73.50;;;;;;5052374;28;19978;-73
2023/06/23 02:03:29;;;;;;;;;;;23.00;73.70;;;;;;5051275;28;19928;-73
2023/06/23 02:05:56;;;;;;;;;;;23.00;73.80;;;;;;5054326;28;19929;-74
2023/06/23 02:08:23;;;;;;;;;;;22.90;73.90;;;;;;5050366;28;19928;-74
2023/06/23 02:10:50;;;;;;;;;;;22.90;74.00;;;;;;5046601;28;20027;-74
2023/06/23 02:13:18;;;;;;;;;;;22.80;74.40;;;;;;5051490;28;20306;-73
2023/06/23 02:15:46;;;;;;;;;;;22.80;74.10;;;;;;5051426;28;19929;-74
2023/06/23 02:18:13;;;;;;;;;;;22.80;74.20;;;;;;5049978;28;19935;-74
2023/06/23 02:20:41;;;;;;;;;;;22.70;74.30;;;;;;5048158;28;19936;-74
2023/06/23 02:23:09;;;;;;;;;;;22.60;74.40;;;;;;5053434;28;20583;-74
2023/06/23 02:25:36;;;;;;;;;;;22.60;74.60;;;;;;5049977;28;19928;-74
2023/06/23 02:28:03;;;;;;;;;;;22.50;74.80;;;;;;5052026;28;19932;-74
2023/06/23 02:30:29;;;;;;;;;;;22.50;75.00;;;;;;5053508;28;21085;-74
2023/06/23 02:32:57;;;;;;;;;;;22.50;75.10;;;;;;5047663;28;19928;-74
2023/06/23 02:35:23;;;;;;;;;;;22.50;75.30;;;;;;5046927;28;20674;-75
2023/06/23 02:37:53;;;;;;;;;;;22.40;75.20;;;;;;5051201;28;19932;-75
2023/06/23 02:40:20;;;;;;;;;;;22.40;75.40;;;;;;5053011;28;19928;-74
2023/06/23 02:42:48;;;;;;;;;;;22.30;75.50;;;;;;5047472;28;19928;-74
2023/06/23 02:45:17;;;;;;;;;;;22.30;75.60;;;;;;5052116;28;19932;-74
2023/06/23 02:47:45;;;;;;;;;;;22.20;75.60;;;;;;5048516;28;19932;-73
2023/06/23 02:50:12;;;;;;;;;;;22.20;75.80;;;;;;5047727;28;19933;-74
2023/06/23 02:52:42;;;;;;;;;;;22.20;76.00;;;;;;5051092;28;19929;-74
2023/06/23 02:55:11;;;;;;;;;;;22.20;76.00;;;;;;5047554;28;19928;-74
2023/06/23 02:57:38;;;;;;;;;;;22.10;76.10;;;;;;5049706;28;19933;-73
2023/06/23 03:00:12;;;;;;;;;;;22.10;76.30;;;;;;5046315;28;19985;-72
2023/06/23 03:02:42;;;;;;;;;;;22.00;76.30;;;;;;5054170;28;19934;-75
2023/06/23 03:05:08;;;;;;;;;;;22.00;76.40;;;;;;5051493;28;20035;-75
2023/06/23 03:07:38;;;;;;;;;;;22.00;76.50;;;;;;5048956;28;19936;-74
2023/06/23 03:10:06;;;;;;;;;;;22.00;76.70;;;;;;5053625;28;20473;-75
2023/06/23 03:12:34;;;;;;;;;;;21.90;76.70;;;;;;5046511;28;19935;-74
2023/06/23 03:15:00;;;;;;;;;;;21.90;76.80;;;;;;5048638;28;20011;-75
2023/06/23 03:17:28;;;;;;;;;;;21.90;77.00;;;;;;5056666;28;19931;-75
2023/06/23 03:19:57;;;;;;;;;;;21.80;77.00;;;;;;5055718;28;19964;-75
2023/06/23 03:22:26;;;;;;;;;;;21.80;77.10;;;;;;5052330;28;19948;-75
2023/06/23 03:24:54;;;;;;;;;;;21.80;78.00;;;;;;5057607;28;19928;-75
2023/06/23 03:27:22;;;;;;;;;;;21.80;78.00;;;;;;5055904;28;20399;-75
2023/06/23 03:29:54;;;;;;;;;;;21.80;77.40;;;;;;5053670;28;19963;-75
2023/06/23 03:32:26;;;;;;;;;;;21.70;77.40;;;;;;5055489;28;19933;-75
2023/06/23 03:34:55;;;;;;;;;;;21.70;77.50;;;;;;5052687;28;19982;-75
2023/06/23 03:37:23;;;;;;;;;;;21.60;77.60;;;;;;5047223;28;19986;-76
2023/06/23 03:39:51;;;;;;;;;;;21.60;77.70;;;;;;5045782;28;19932;-75
2023/06/23 03:42:19;;;;;;;;;;;21.60;77.90;;;;;;5052676;28;19928;-73
2023/06/23 03:44:47;;;;;;;;;;;21.60;78.00;;;;;;5054783;28;19935;-74
2023/06/23 03:47:17;;;;;;;;;;;21.60;78.00;;;;;;5055929;28;20315;-75
2023/06/23 03:49:46;;;;;;;;;;;21.50;78.00;;;;;;5058094;28;19932;-75
2023/06/23 03:52:15;;;;;;;;;;;21.50;78.00;;;;;;5055270;28;19932;-75
2023/06/23 03:54:42;;;;;;;;;;;21.50;78.20;;;;;;5052732;28;20391;-74
2023/06/23 03:57:11;;;;;;;;;;;21.50;78.30;;;;;;5054747;28;19928;-75
2023/06/23 03:59:39;;;;;;;;;;;21.40;78.40;;;;;;5052854;28;19932;-75
2023/06/23 04:02:07;;;;;;;;;;;21.40;78.50;;;;;;5057192;28;19928;-74
2023/06/23 04:04:35;;;;;;;;;;;21.40;78.70;;;;;;5054451;28;19933;-74
2023/06/23 04:07:02;;;;;;;;;;;21.40;78.70;;;;;;5055411;28;19932;-72
2023/06/23 04:09:29;;;;;;;;;;;21.30;78.80;;;;;;5055127;28;19933;-74
2023/06/23 04:11:56;;;;;;;;;;;21.30;78.80;;;;;;5058826;28;19924;-74
2023/06/23 04:14:24;;;;;;;;;;;21.30;78.90;;;;;;5051350;28;20011;-75
2023/06/23 04:16:52;;;;;;;;;;;21.30;78.90;;;;;;5054246;28;19937;-74
2023/06/23 04:19:21;;;;;;;;;;;21.30;79.10;;;;;;5051309;28;19936;-73
2023/06/23 04:21:49;;;;;;;;;;;21.20;79.10;;;;;;5053626;28;19929;-74
2023/06/23 04:24:17;;;;;;;;;;;21.20;79.20;;;;;;5050020;28;19940;-75
2023/06/23 04:26:44;;;;;;;;;;;21.20;79.30;;;;;;5055911;28;20318;-75
2023/06/23 04:29:12;;;;;;;;;;;21.20;79.30;;;;;;5055588;28;19929;-74
2023/06/23 04:31:39;;;;;;;;;;;21.20;79.30;;;;;;5055298;28;19929;-74
2023/06/23 04:34:06;;;;;;;;;;;21.20;79.30;;;;;;5058243;28;19932;-74
2023/06/23 04:36:35;;;;;;;;;;;21.10;79.30;;;;;;5053849;28;19936;-73
2023/06/23 04:39:06;;;;;;;;;;;21.10;79.30;;;;;;5052359;28;19940;-74
2023/06/23 04:41:34;;;;;;;;;;;21.20;79.50;;;;;;5050945;28;19939;-74
2023/06/23 04:44:03;;;;;;;;;;;21.10;80.30;;;;;;5057219;28;20030;-74
2023/06/23 04:46:31;;;;;;;;;;;21.10;79.60;;;;;;5053561;28;19970;-74
2023/06/23 04:49:01;;;;;;;;;;;21.10;79.70;;;;;;5052073;28;19938;-74
2023/06/23 04:51:29;;;;;;;;;;;21.10;79.70;;;;;;5056544;28;20631;-74
2023/06/23 04:53:58;;;;;;;;;;;21.00;79.80;;;;;;5051885;28;19932;-74
2023/06/23 04:56:31;;;;;;;;;;;21.00;79.80;;;;;;5056351;28;19929;-74
2023/06/23 04:58:59;;;;;;;;;;;21.00;79.90;;;;;;5049075;28;19966;-74
2023/06/23 05:01:27;;;;;;;;;;;21.00;80.00;;;;;;5053595;28;19933;-74
2023/06/23 05:03:55;;;;;;;;;;;21.00;80.10;;;;;;5046661;28;19974;-74
2023/06/23 05:06:23;;;;;;;;;;;21.00;80.20;;;;;;5050904;28;19940;-74
2023/06/23 05:08:51;;;;;;;;;;;20.90;80.20;;;;;;5047531;28;19934;-73
2023/06/23 05:11:18;;;;;;;;;;;20.90;80.20;;;;;;5052371;28;19929;-74
2023/06/23 05:13:47;;;;;;;;;;;21.00;80.20;;;;;;5047008;28;19929;-74
2023/06/23 05:16:14;;;;;;;;;;;20.90;80.20;;;;;;5047402;28;19932;-74
2023/06/23 05:18:42;;;;;;;;;;;20.90;80.30;;;;;;5047420;28;19934;-74
2023/06/23 05:21:10;;;;;;;;;;;20.90;80.40;;;;;;5050388;28;19990;-73
2023/06/23 05:23:39;;;;;;;;;;;20.90;80.50;;;;;;5052894;28;19933;-74
2023/06/23 05:26:07;;;;;;;;;;;20.90;80.50;;;;;;5048195;28;19928;-74
2023/06/23 05:28:35;;;;;;;;;;;20.90;80.50;;;;;;5048747;28;20921;-73
2023/06/23 05:31:04;;;;;;;;;;;20.80;80.30;;;;;;5051536;28;19940;-74
2023/06/23 05:33:32;;;;;;;;;;;20.90;80.30;;;;;;5043121;28;19928;-74
2023/06/23 05:35:59;;;;;;;;;;;20.80;80.30;;;;;;4989574;28;1719229;-72
2023/06/23 05:38:27;;;;;;;;;;;20.90;80.30;;;;;;5059411;28;19982;-73
2023/06/23 05:40:53;;;;;;;;;;;20.90;80.30;;;;;;5050940;28;19932;-74
2023/06/23 05:43:20;;;;;;;;;;;20.90;80.30;;;;;;5054375;28;20020;-73
2023/06/23 05:45:46;;;;;;;;;;;20.90;80.30;;;;;;5048970;28;19928;-72
2023/06/23 05:48:19;;;;;;;;;;;20.90;80.40;;;;;;5058264;28;20354;-73
2023/06/23 05:50:47;;;;;;;;;;;20.80;80.40;;;;;;5053646;28;19929;-73
2023/06/23 05:53:15;;;;;;;;;;;20.80;80.50;;;;;;5055853;28;19936;-73
2023/06/23 05:55:43;;;;;;;;;;;20.80;80.50;;;;;;5056011;28;19978;-73
2023/06/23 05:58:10;;;;;;;;;;;20.80;80.50;;;;;;5061226;28;20050;-73
2023/06/23 06:00:41;;;;;;;;;;;20.80;80.50;;;;;;5058400;28;19928;-72
2023/06/23 06:03:10;;;;;;;;;;;20.80;80.40;;;;;;5057930;28;19928;-73
2023/06/23 06:05:39;;;;;;;;;;;20.80;80.40;;;;;;5053025;28;19959;-73
2023/06/23 06:08:09;;;;;;;;;;;20.80;80.30;;;;;;5055016;28;20173;-73
2023/06/23 06:10:37;;;;;;;;;;;20.80;80.30;;;;;;5054681;28;19944;-73
2023/06/23 06:13:04;;;;;;;;;;;20.80;80.30;;;;;;5056769;28;19940;-73
2023/06/23 06:15:31;;;;;;;;;;;20.80;80.30;;;;;;5049526;28;19950;-73
2023/06/23 06:18:00;;;;;;;;;;;20.80;80.30;;;;;;5052108;28;19978;-72
2023/06/23 06:20:28;;;;;;;;;;;20.80;80.30;;;;;;5047555;28;19928;-73
2023/06/23 06:22:56;;;;;;;;;;;20.80;80.40;;;;;;5052302;28;19990;-72
2023/06/23 06:25:23;;;;;;;;;;;20.80;80.40;;;;;;5047996;28;19928;-74
2023/06/23 06:27:50;;;;;;;;;;;20.80;80.40;;;;;;5049599;28;19932;-72
2023/06/23 06:30:18;;;;;;;;;;;20.80;80.40;;;;;;5045416;28;20014;-75
2023/06/23 06:32:45;;;;;;;;;;;20.80;80.40;;;;;;5048331;28;19932;-75
2023/06/23 06:35:12;;;;;;;;;;;20.90;80.50;;;;;;5049628;28;19925;-76
2023/06/23 06:37:40;;;;;;;;;;;20.80;80.40;;;;;;5050427;28;19925;-75
2023/06/23 06:40:09;;;;;;;;;;;20.90;80.40;;;;;;5047451;28;19929;-74
2023/06/23 06:42:36;;;;;;;;;;;20.90;80.30;;;;;;5041112;28;19944;-76
2023/06/23 06:45:03;;;;;;;;;;;20.90;80.20;;;;;;5048899;28;20535;-75
2023/06/23 06:47:30;;;;;;;;;;;20.90;80.00;;;;;;5047988;28;20513;-77
2023/06/23 06:49:57;;;;;;;;;;;20.90;79.90;;;;;;5045084;28;19972;-78
2023/06/23 06:52:25;;;;;;;;;;;20.90;79.90;;;;;;5053310;28;19932;-78
2023/06/23 06:54:52;;;;;;;;;;;20.90;79.80;;;;;;5048531;28;19936;-78
2023/06/23 06:57:20;;;;;;;;;;;20.90;79.70;;;;;;5051066;28;19935;-77
2023/06/23 06:59:47;;;;;;;;;;;20.90;79.60;;;;;;5050247;28;19928;-77
2023/06/23 07:02:14;;;;;;;;;;;20.90;79.60;;;;;;5041886;28;19941;-78
2023/06/23 07:04:41;;;;;;;;;;;21.00;79.40;;;;;;5048883;28;19925;-77
2023/06/23 07:07:07;;;;;;;;;;;20.90;79.30;;;;;;5047191;28;19933;-77
2023/06/23 07:09:34;;;;;;;;;;;20.90;79.20;;;;;;5043036;28;20354;-76
2023/06/23 07:12:01;;;;;;;;;;;21.00;79.00;;;;;;5046143;28;19932;-76
2023/06/23 07:14:28;;;;;;;;;;;21.00;78.80;;;;;;5050873;28;19936;-77
2023/06/23 07:16:55;;;;;;;;;;;21.00;78.80;;;;;;5045851;28;19935;-77
2023/06/23 07:19:21;;;;;;;;;;;21.00;78.60;;;;;;5047337;28;19933;-79
2023/06/23 07:21:48;;;;;;;;;;;21.10;78.50;;;;;;5050772;28;19944;-77
2023/06/23 07:24:15;;;;;;;;;;;21.00;78.20;;;;;;5045601;28;20004;-77
2023/06/23 07:26:42;;;;;;;;;;;21.00;77.90;;;;;;5045834;28;19931;-77
2023/06/23 07:29:09;;;;;;;;;;;21.10;77.80;;;;;;5045388;28;20506;-80
2023/06/23 07:31:37;;;;;;;;;;;21.10;77.60;;;;;;5044113;28;20078;-76
2023/06/23 07:34:03;;;;;;;;;;;21.10;77.60;;;;;;5047997;28;19932;-77
2023/06/23 07:36:30;;;;;;;;;;;21.10;77.40;;;;;;5036576;28;20409;-76
2023/06/23 07:38:57;;;;;;;;;;;21.10;77.30;;;;;;5045875;28;19936;-76
2023/06/23 07:41:23;;;;;;;;;;;21.10;77.20;;;;;;5047455;28;19933;-74
2023/06/23 07:43:50;;;;;;;;;;;21.10;77.10;;;;;;5046867;28;20303;-76
2023/06/23 07:46:16;;;;;;;;;;;21.20;77.10;;;;;;5043800;28;19936;-74
2023/06/23 07:48:44;;;;;;;;;;;21.20;77.00;;;;;;5046353;28;19939;-75
2023/06/23 07:51:11;;;;;;;;;;;21.20;76.90;;;;;;5047866;28;20003;-75
2023/06/23 07:53:37;;;;;;;;;;;21.20;76.80;;;;;;5054815;28;20398;-74
2023/06/23 07:56:04;;;;;;;;;;;21.20;76.70;;;;;;5044684;28;19939;-78
2023/06/23 07:58:31;;;;;;;;;;;21.30;76.70;;;;;;5049496;28;19928;-75
2023/06/23 08:00:57;;;;;;;;;;;21.30;76.60;;;;;;5050558;28;19978;-77
2023/06/23 08:03:24;;;;;;;;;;;21.30;76.50;;;;;;5051493;28;19956;-75
2023/06/23 08:05:51;;;;;;;;;;;21.30;76.30;;;;;;5053161;28;20488;-76
2023/06/23 08:08:18;;;;;;;;;;;21.30;76.30;;;;;;5042844;28;19933;-76
2023/06/23 08:10:44;;;;;;;;;;;21.40;76.20;;;;;;5051852;28;19932;-76
2023/06/23 08:13:11;;;;;;;;;;;21.40;76.10;;;;;;5049132;28;19928;-75
2023/06/23 08:15:38;;;;;;;;;;;21.40;75.90;;;;;;5047330;28;19962;-78
2023/06/23 08:18:04;;;;;;;;;;;21.40;75.70;;;;;;5044581;28;19929;-76
2023/06/23 08:20:31;;;;;;;;;;;21.40;75.60;;;;;;5047020;28;19981;-75
2023/06/23 08:22:59;;;;;;;;;;;21.40;75.50;;;;;;5048892;28;19936;-74
2023/06/23 08:25:25;;;;;;;;;;;21.40;75.40;;;;;;5046776;28;20023;-76
2023/06/23 08:27:52;;;;;;;;;;;21.40;75.10;;;;;;5041375;28;21734;-78
2023/06/23 08:30:25;;;;;;;;;;;21.50;75.00;;;;;;5045670;28;19929;-78
2023/06/23 08:32:52;;;;;;;;;;;21.50;74.90;;;;;;5052275;28;19928;-79
2023/06/23 08:35:18;;;;;;;;;;;21.50;75.20;;;;;;5052614;28;19936;-76
2023/06/23 08:37:45;;;;;;;;;;;21.50;74.30;;;;;;5050816;28;19939;-76
2023/06/23 08:40:13;;;;;;;;;;;21.50;74.10;;;;;;5052558;28;19963;-75
2023/06/23 08:42:40;;;;;;;;;;;21.60;74.00;;;;;;5047470;28;20295;-75
2023/06/23 08:45:07;;;;;;;;;;;21.60;73.90;;;;;;5050776;28;19967;-74
2023/06/23 08:47:36;;;;;;;;;;;21.60;73.60;;;;;;5053649;28;19994;-74
2023/06/23 08:50:02;;;;;;;;;;;21.70;73.20;;;;;;5051271;28;19974;-77
2023/06/23 08:52:29;;;;;;;;;;;21.60;72.90;;;;;;5048552;28;19944;-75
2023/06/23 08:54:56;;;;;;;;;;;21.70;72.80;;;;;;5052118;28;20402;-77
2023/06/23 08:57:24;;;;;;;;;;;21.80;72.80;;;;;;5055032;28;19943;-77
2023/06/23 08:59:51;;;;;;;;;;;21.80;72.80;;;;;;5048698;28;19998;-76
2023/06/23 09:02:17;;;;;;;;;;;21.80;72.70;;;;;;5047361;28;19935;-77
2023/06/23 09:04:44;;;;;;;;;;;21.80;72.60;;;;;;5048985;28;19933;-77
2023/06/23 09:07:11;;;;;;;;;;;21.80;72.40;;;;;;5051621;28;19939;-76
2023/06/23 09:09:37;;;;;;;;;;;21.80;72.20;;;;;;5047018;28;19936;-77
2023/06/23 09:12:04;;;;;;;;;;;21.90;72.00;;;;;;5049131;28;19941;-76
2023/06/23 09:14:34;;;;;;;;;;;21.90;71.90;;;;;;5047039;28;19995;-76
2023/06/23 09:17:01;;;;;;;;;;;22.00;71.80;;;;;;5051987;28;19929;-77
2023/06/23 09:19:28;;;;;;;;;;;22.00;71.60;;;;;;5049458;28;19974;-71
2023/06/23 09:21:55;;;;;;;;;;;22.10;71.30;;;;;;5047236;28;19936;-78
2023/06/23 09:24:22;;;;;;;;;;;22.10;70.70;;;;;;5053273;28;19936;-70
2023/06/23 09:26:49;;;;;;;;;;;22.10;70.50;;;;;;5047711;28;19966;-71
2023/06/23 09:29:17;;;;;;;;;;;22.10;70.00;;;;;;5052968;28;19929;-71
2023/06/23 09:31:46;;;;;;;;;;;22.20;69.70;;;;;;5045144;28;19939;-71
2023/06/23 09:34:20;;;;;;;;;;;22.20;69.40;;;;;;5061631;28;20351;-70
2023/06/23 09:36:46;;;;;;;;;;;22.20;69.30;;;;;;5050969;28;20333;-71
2023/06/23 09:39:15;;;;;;;;;;;22.30;69.30;;;;;;5053754;28;20394;-71
2023/06/23 09:41:45;;;;;;;;;;;22.30;69.30;;;;;;5047216;28;20055;-70
2023/06/23 09:44:13;;;;;;;;;;;22.30;69.20;;;;;;5061261;28;19936;-71
2023/06/23 09:46:41;;;;;;;;;;;22.40;69.20;;;;;;5057458;28;20516;-70
2023/06/23 09:49:09;;;;;;;;;;;22.40;68.10;;;;;;5054584;28;19939;-70
2023/06/23 09:51:36;;;;;;;;;;;22.40;67.70;;;;;;5051553;28;19936;-70
2023/06/23 09:54:03;;;;;;;;;;;22.50;67.10;;;;;;5054023;28;19931;-70
2023/06/23 09:56:29;;;;;;;;;;;22.50;67.60;;;;;;5055188;28;19928;-70
2023/06/23 09:58:56;;;;;;;;;;;22.50;67.00;;;;;;5055986;28;20010;-70
2023/06/23 10:01:22;;;;;;;;;;;22.60;66.90;;;;;;5061955;28;19928;-70
2023/06/23 10:03:50;;;;;;;;;;;22.60;66.80;;;;;;5057451;28;19928;-71
2023/06/23 10:06:28;;;;;;;;;;;22.60;66.30;;;;;;5056694;28;19928;-70
2023/06/23 10:08:55;;;;;;;;;;;22.60;66.10;;;;;;5056789;28;19998;-70
2023/06/23 10:11:29;;;;;;;;;;;22.60;66.00;;;;;;5052789;28;19929;-71
2023/06/23 10:13:56;;;;;;;;;;;22.70;65.10;;;;;;5050457;28;20511;-70
2023/06/23 10:16:23;;;;;;;;;;;22.80;65.00;;;;;;5055474;28;19935;-70
2023/06/23 10:18:49;;;;;;;;;;;22.80;64.70;;;;;;5055014;28;19928;-71
2023/06/23 10:21:16;;;;;;;;;;;22.90;64.60;;;;;;5054335;28;19929;-70
2023/06/23 10:23:44;;;;;;;;;;;22.90;64.10;;;;;;5052199;28;19928;-71
2023/06/23 10:26:12;;;;;;;;;;;23.00;63.80;;;;;;5052188;28;20708;-71
2023/06/23 10:28:39;;;;;;;;;;;23.00;63.60;;;;;;5056430;28;19932;-71
2023/06/23 10:31:06;;;;;;;;;;;23.10;63.10;;;;;;5056785;28;19928;-71
2023/06/23 10:33:36;;;;;;;;;;;23.10;62.50;;;;;;5047720;28;20338;-71
2023/06/23 10:36:04;;;;;;;;;;;23.10;62.20;;;;;;5052821;28;20386;-71
2023/06/23 10:38:31;;;;;;;;;;;23.20;62.10;;;;;;5046354;28;20654;-70
2023/06/23 10:41:00;;;;;;;;;;;23.30;62.00;;;;;;5057598;28;19933;-70
2023/06/23 10:43:30;;;;;;;;;;;23.30;61.20;;;;;;5048359;28;19936;-70
2023/06/23 10:45:57;;;;;;;;;;;23.30;61.10;;;;;;5058302;28;20055;-71
2023/06/23 10:48:24;;;;;;;;;;;23.40;60.90;;;;;;5054942;28;20552;-71
2023/06/23 10:50:52;;;;;;;;;;;23.50;60.20;;;;;;5057971;28;20042;-70
2023/06/23 10:53:19;;;;;;;;;;;23.50;60.50;;;;;;5059161;28;19933;-71
2023/06/23 10:55:46;;;;;;;;;;;23.60;60.60;;;;;;5056934;28;19935;-70
2023/06/23 10:58:16;;;;;;;;;;;23.60;60.60;;;;;;5045495;28;19933;-71
2023/06/23 11:00:46;;;;;;;;;;;23.60;60.20;;;;;;5057995;28;19944;-70
2023/06/23 11:03:27;;;;;;;;;;;23.70;60.30;;;;;;5048093;28;19932;-70
2023/06/23 11:05:54;;;;;;;;;;;23.70;60.50;;;;;;5051001;28;19933;-71
2023/06/23 11:08:27;;;;;;;;;;;23.80;60.50;;;;;;5050074;28;19963;-71
2023/06/23 11:10:57;;;;;;;;;;;23.80;59.30;;;;;;5048434;28;19987;-70
2023/06/23 11:13:32;;;;;;;;;;;23.90;58.80;;;;;;5060197;28;19935;-71
2023/06/23 11:15:59;;;;;;;;;;;24.00;59.10;;;;;;5059336;28;19950;-72
2023/06/23 11:18:26;;;;;;;;;;;24.00;59.10;;;;;;5052276;28;19930;-70
2023/06/23 11:20:53;;;;;;;;;;;24.00;59.00;;;;;;5056213;28;19935;-71
2023/06/23 11:23:19;;;;;;;;;;;24.10;58.90;;;;;;5049525;28;19932;-71
2023/06/23 11:25:47;;;;;;;;;;;24.10;58.90;;;;;;5050839;28;19959;-70
2023/06/23 11:28:33;;;;;;;;;;;24.20;59.20;;;;;;5055812;28;20000;-71
2023/06/23 11:31:05;;;;;;;;;;;24.20;59.10;;;;;;5048475;28;19928;-70
2023/06/23 11:33:32;;;;;;;;;;;24.30;58.60;;;;;;5060088;28;20631;-70
2023/06/23 11:36:03;;;;;;;;;;;24.30;58.70;;;;;;5052764;28;19932;-70
2023/06/23 11:38:30;;;;;;;;;;;24.40;57.90;;;;;;5051863;28;19928;-72
2023/06/23 11:40:57;;;;;;;;;;;24.40;57.60;;;;;;5050206;28;19936;-70
2023/06/23 11:43:24;;;;;;;;;;;24.40;57.90;;;;;;5058460;28;19935;-71
2023/06/23 11:45:52;;;;;;;;;;;24.40;56.00;;;;;;5055979;28;20406;-71
2023/06/23 11:48:20;;;;;;;;;;;24.40;56.30;;;;;;5054375;28;20674;-70
2023/06/23 11:50:47;;;;;;;;;;;24.50;56.80;;;;;;5058516;28;20692;-71
2023/06/23 11:53:14;;;;;;;;;;;24.40;56.90;;;;;;5059364;28;19929;-71
2023/06/23 11:55:41;;;;;;;;;;;24.50;57.10;;;;;;5058802;28;19937;-71
2023/06/23 11:58:08;;;;;;;;;;;24.60;57.20;;;;;;5043516;28;19936;-71
2023/06/23 12:00:35;;;;;;;;;;;24.60;57.00;;;;;;5049329;28;19982;-71
2023/06/23 12:03:01;;;;;;;;;;;24.60;56.20;;;;;;5056177;28;19933;-71
2023/06/23 12:05:29;;;;;;;;;;;24.70;56.40;;;;;;5059503;28;19929;-71
2023/06/23 12:07:56;;;;;;;;;;;24.60;56.60;;;;;;5051777;28;20380;-70
2023/06/23 12:10:24;;;;;;;;;;;24.70;56.40;;;;;;5053550;28;19928;-71
2023/06/23 12:12:52;;;;;;;;;;;24.70;55.60;;;;;;5054163;28;20007;-71
2023/06/23 12:15:21;;;;;;;;;;;24.80;55.70;;;;;;5053615;28;19936;-70
2023/06/23 12:17:48;;;;;;;;;;;24.80;55.60;;;;;;5054911;28;19929;-71
2023/06/23 12:20:18;;;;;;;;;;;24.90;55.70;;;;;;5054110;28;19958;-71
2023/06/23 12:22:49;;;;;;;;;;;24.90;56.30;;;;;;5049253;28;19932;-71
2023/06/23 12:25:15;;;;;;;;;;;24.90;55.70;;;;;;5054297;28;19980;-71
2023/06/23 12:27:50;;;;;;;;;;;25.00;55.50;;;;;;5053858;28;19929;-71
2023/06/23 12:30:17;;;;;;;;;;;25.00;55.90;;;;;;5057409;28;19933;-71
2023/06/23 12:32:43;;;;;;;;;;;25.10;55.90;;;;;;5056466;28;19932;-70
2023/06/23 12:35:10;;;;;;;;;;;25.10;55.20;;;;;;5057411;28;19929;-71
2023/06/23 12:37:43;;;;;;;;;;;25.20;55.00;;;;;;5056986;28;19985;-70
2023/06/23 12:40:12;;;;;;;;;;;25.30;54.80;;;;;;5050354;28;19928;-71
2023/06/23 12:42:39;;;;;;;;;;;25.40;53.70;;;;;;5052617;28;19928;-71
2023/06/23 12:45:08;;;;;;;;;;;25.40;53.40;;;;;;5056771;28;19939;-70
2023/06/23 12:47:35;;;;;;;;;;;25.50;54.00;;;;;;5055458;28;20023;-70
2023/06/23 12:50:06;;;;;;;;;;;25.60;53.70;;;;;;5054900;28;20051;-70
2023/06/23 12:52:33;;;;;;;;;;;25.60;53.10;;;;;;5055497;28;19937;-71
2023/06/23 12:54:59;;;;;;;;;;;25.60;52.80;;;;;;5059105;28;19944;-69
2023/06/23 12:57:27;;;;;;;;;;;25.70;52.40;;;;;;5050205;28;20803;-70
2023/06/23 12:59:54;;;;;;;;;;;25.80;52.50;;;;;;5057575;28;19937;-70
2023/06/23 13:02:20;;;;;;;;;;;25.80;52.50;;;;;;5056765;28;19967;-70
2023/06/23 13:04:47;;;;;;;;;;;25.90;52.90;;;;;;5058965;28;20339;-70
2023/06/23 13:07:13;;;;;;;;;;;25.90;52.10;;;;;;5050071;28;19928;-70
2023/06/23 13:09:40;;;;;;;;;;;26.00;50.40;;;;;;5054169;28;19932;-70
2023/06/23 13:12:07;;;;;;;;;;;26.10;51.40;;;;;;5060690;28;19925;-70
2023/06/23 13:14:35;;;;;;;;;;;26.10;52.00;;;;;;5064096;28;19928;-70
2023/06/23 13:17:01;;;;;;;;;;;26.10;51.70;;;;;;5048926;28;20321;-70
2023/06/23 13:19:28;;;;;;;;;;;26.20;51.90;;;;;;5055131;28;20511;-71
2023/06/23 13:21:54;;;;;;;;;;;26.20;52.10;;;;;;5054085;28;19932;-71
2023/06/23 13:24:21;;;;;;;;;;;26.20;51.60;;;;;;5055835;28;19932;-70
2023/06/23 13:26:48;;;;;;;;;;;26.20;52.30;;;;;;5055369;28;20354;-71
2023/06/23 13:29:14;;;;;;;;;;;26.20;51.30;;;;;;5056703;28;20013;-70
2023/06/23 13:31:42;;;;;;;;;;;26.20;51.30;;;;;;5062324;28;20590;-70
2023/06/23 13:34:08;;;;;;;;;;;26.30;50.90;;;;;;5055831;28;19929;-71
2023/06/23 13:36:36;;;;;;;;;;;26.30;51.10;;;;;;5051559;28;19936;-70
2023/06/23 13:39:03;;;;;;;;;;;26.30;50.40;;;;;;5059544;28;19929;-70
2023/06/23 13:41:30;;;;;;;;;;;26.30;50.50;;;;;;5060688;28;19934;-71
2023/06/23 13:43:56;;;;;;;;;;;26.40;50.30;;;;;;5054659;28;19932;-70
2023/06/23 13:46:23;;;;;;;;;;;26.40;49.70;;;;;;5060630;28;20394;-71
2023/06/23 13:48:51;;;;;;;;;;;26.50;49.70;;;;;;5055229;28;19929;-70
2023/06/23 13:51:17;;;;;;;;;;;26.50;49.70;;;;;;5054610;28;19932;-72
2023/06/23 13:53:44;;;;;;;;;;;26.50;50.00;;;;;;5057454;28;19935;-70
2023/06/23 13:56:10;;;;;;;;;;;26.60;50.40;;;;;;5060514;28;19935;-71
2023/06/23 13:58:37;;;;;;;;;;;26.60;49.90;;;;;;5055353;28;19948;-70
2023/06/23 14:01:03;;;;;;;;;;;26.60;49.40;;;;;;5057314;28;19951;-70
2023/06/23 14:03:30;;;;;;;;;;;26.70;49.30;;;;;;5058701;28;20360;-71
2023/06/23 14:05:59;;;;;;;;;;;26.70;48.00;;;;;;5059886;28;20514;-70
2023/06/23 14:08:27;;;;;;;;;;;26.80;49.40;;;;;;5053351;28;20013;-70
2023/06/23 14:10:53;;;;;;;;;;;26.80;49.50;;;;;;5052059;28;19998;-72
2023/06/23 14:13:20;;;;;;;;;;;26.90;49.20;;;;;;5041904;28;19936;-70
2023/06/23 14:15:46;;;;;;;;;;;26.90;48.80;;;;;;5051796;28;19936;-71
2023/06/23 14:18:13;;;;;;;;;;;26.90;48.60;;;;;;5050001;28;19928;-70
2023/06/23 14:20:39;;;;;;;;;;;27.00;49.30;;;;;;5051434;28;19936;-70